Terminal Aerodrome Forecast
Issued by NWS

Home | Current Version | Previous Version | Text Only | Print | Product List | Glossary On
Versions: 1 2 3 4 5 6 7 8 9 10 11 12 13 14
000
FTUS42 TJSJ 300540
TAFJBQ
TAF
TJBQ 300540Z 3006/3106 11010KT P6SM FEW025 FEW040
     FM301430 08015G25KT P6SM SCT030 BKN050
     FM302330 11010KT P6SM FEW025
      AMD NOT SKED TIL 301100=

USA.gov is the U.S. government's official web portal to all federal, state and local government web resources and services.